Terminal Aerodrome Forecast
Issued by NWS

Home | Current Version | Previous Version | Text Only | Print | Product List | Glossary Off
Versions: 1 2 3 4 5 6 7 8 9 10 11 12 13 14 15 16 17 18 19 20 21 22 23

000
FTUS43 KABR 220834 AAE
TAFATY
TAF AMD
KATY 220834Z 2209/2306 32007KT P6SM OVC006
      TEMPO 2209/2212 2SM -SN BR OVC003
     FM221800 30010KT P6SM OVC008
     FM230200 30007KT P6SM OVC008=

USA.gov is the U.S. government's official web portal to all federal, state and local government web resources and services.